sensor_id;sensor_type;location;lat;lon;timestamp;pressure;altitude;pressure_sealevel;temperature;humidity
50342;BME280;76053;42.682;23.286;2024-03-25T00:02:16;93582.00;;;24.05;55.82
50342;BME280;76053;42.682;23.286;2024-03-25T00:05:16;93580.03;;;24.06;55.72
50342;BME280;76053;42.682;23.286;2024-03-25T00:08:17;93566.38;;;24.06;55.77
50342;BME280;76053;42.682;23.286;2024-03-25T00:11:17;93570.59;;;24.07;55.56
50342;BME280;76053;42.682;23.286;2024-03-25T00:14:18;93561.66;;;24.06;55.65
50342;BME280;76053;42.682;23.286;2024-03-25T00:17:18;93552.25;;;24.07;55.83
50342;BME280;76053;42.682;23.286;2024-03-25T00:20:18;93554.56;;;24.09;55.75
50342;BME280;76053;42.682;23.286;2024-03-25T00:23:19;93554.56;;;24.09;55.87
50342;BME280;76053;42.682;23.286;2024-03-25T00:26:19;93549.09;;;24.09;55.87
50342;BME280;76053;42.682;23.286;2024-03-25T00:29:19;93541.66;;;24.09;55.78
50342;BME280;76053;42.682;23.286;2024-03-25T00:32:20;93534.56;;;24.12;56.09
50342;BME280;76053;42.682;23.286;2024-03-25T00:35:20;93533.78;;;24.11;55.76
50342;BME280;76053;42.682;23.286;2024-03-25T00:38:21;93522.88;;;24.11;55.83
50342;BME280;76053;42.682;23.286;2024-03-25T00:41:21;93529.56;;;24.10;55.84
50342;BME280;76053;42.682;23.286;2024-03-25T00:44:21;93522.22;;;24.07;55.92
50342;BME280;76053;42.682;23.286;2024-03-25T00:47:22;93530.56;;;24.03;55.74
50342;BME280;76053;42.682;23.286;2024-03-25T00:50:22;93544.34;;;24.00;55.89
50342;BME280;76053;42.682;23.286;2024-03-25T00:53:23;93546.81;;;23.73;54.08
50342;BME280;76053;42.682;23.286;2024-03-25T00:56:23;93531.66;;;23.59;55.09
50342;BME280;76053;42.682;23.286;2024-03-25T00:59:23;93513.56;;;23.52;55.22
50342;BME280;76053;42.682;23.286;2024-03-25T01:02:24;93521.88;;;23.49;55.04
50342;BME280;76053;42.682;23.286;2024-03-25T01:05:24;93518.03;;;23.46;54.89
50342;BME280;76053;42.682;23.286;2024-03-25T01:08:25;93500.19;;;23.45;54.97
50342;BME280;76053;42.682;23.286;2024-03-25T01:11:25;93501.78;;;23.43;55.98
50342;BME280;76053;42.682;23.286;2024-03-25T01:14:25;93477.22;;;23.43;55.91
50342;BME280;76053;42.682;23.286;2024-03-25T01:17:26;93476.16;;;23.40;55.87
50342;BME280;76053;42.682;23.286;2024-03-25T01:20:26;93481.28;;;23.38;56.30
50342;BME280;76053;42.682;23.286;2024-03-25T01:23:26;93472.03;;;23.36;56.63
50342;BME280;76053;42.682;23.286;2024-03-25T01:26:27;93479.09;;;23.33;56.67
50342;BME280;76053;42.682;23.286;2024-03-25T01:29:27;93483.50;;;23.31;56.84
50342;BME280;76053;42.682;23.286;2024-03-25T01:32:28;93481.63;;;23.28;57.00
50342;BME280;76053;42.682;23.286;2024-03-25T01:35:28;93492.22;;;23.26;57.13
50342;BME280;76053;42.682;23.286;2024-03-25T01:38:29;93495.38;;;23.24;57.18
50342;BME280;76053;42.682;23.286;2024-03-25T01:41:29;93504.44;;;23.21;57.06
50342;BME280;76053;42.682;23.286;2024-03-25T01:44:29;93500.19;;;23.20;57.50
50342;BME280;76053;42.682;23.286;2024-03-25T01:47:31;93499.84;;;23.18;57.81
50342;BME280;76053;42.682;23.286;2024-03-25T01:50:39;93487.09;;;23.15;57.86
50342;BME280;76053;42.682;23.286;2024-03-25T01:53:41;93497.25;;;23.14;57.91
50342;BME280;76053;42.682;23.286;2024-03-25T01:56:43;93511.00;;;23.11;57.67
50342;BME280;76053;42.682;23.286;2024-03-25T01:59:44;93509.13;;;23.08;57.96
50342;BME280;76053;42.682;23.286;2024-03-25T02:02:45;93515.00;;;23.06;58.04
50342;BME280;76053;42.682;23.286;2024-03-25T02:05:45;93523.28;;;23.03;58.06
50342;BME280;76053;42.682;23.286;2024-03-25T02:08:48;93526.44;;;23.01;58.10
50342;BME280;76053;42.682;23.286;2024-03-25T02:11:49;93517.97;;;22.99;58.46
50342;BME280;76053;42.682;23.286;2024-03-25T02:14:49;93511.41;;;22.97;58.08
50342;BME280;76053;42.682;23.286;2024-03-25T02:17:49;93516.97;;;22.93;58.24
50342;BME280;76053;42.682;23.286;2024-03-25T02:20:50;93511.97;;;22.92;58.42
50342;BME280;76053;42.682;23.286;2024-03-25T02:23:53;93506.97;;;22.90;58.31
50342;BME280;76053;42.682;23.286;2024-03-25T02:26:55;93501.94;;;22.89;58.34
50342;BME280;76053;42.682;23.286;2024-03-25T02:30:08;93508.28;;;22.86;58.46
50342;BME280;76053;42.682;23.286;2024-03-25T02:33:08;93512.19;;;22.85;58.63
50342;BME280;76053;42.682;23.286;2024-03-25T02:36:09;93522.75;;;22.83;58.39
50342;BME280;76053;42.682;23.286;2024-03-25T02:39:09;93516.53;;;22.82;58.51
50342;BME280;76053;42.682;23.286;2024-03-25T02:42:10;93516.22;;;22.80;58.44
50342;BME280;76053;42.682;23.286;2024-03-25T02:45:10;93516.66;;;22.79;58.79
50342;BME280;76053;42.682;23.286;2024-03-25T02:48:11;93521.03;;;22.76;58.79
50342;BME280;76053;42.682;23.286;2024-03-25T02:51:11;93531.56;;;22.74;58.82
50342;BME280;76053;42.682;23.286;2024-03-25T02:54:12;93544.00;;;22.75;59.01
50342;BME280;76053;42.682;23.286;2024-03-25T02:57:12;93540.16;;;22.72;59.10
50342;BME280;76053;42.682;23.286;2024-03-25T03:00:13;93529.28;;;22.72;58.70
50342;BME280;76053;42.682;23.286;2024-03-25T03:03:13;93550.31;;;22.72;58.69
50342;BME280;76053;42.682;23.286;2024-03-25T03:06:13;93533.63;;;22.70;59.00
50342;BME280;76053;42.682;23.286;2024-03-25T03:09:14;93540.25;;;22.69;58.88
50342;BME280;76053;42.682;23.286;2024-03-25T03:12:14;93546.91;;;22.68;59.06
50342;BME280;76053;42.682;23.286;2024-03-25T03:15:15;93550.81;;;22.67;58.81
50342;BME280;76053;42.682;23.286;2024-03-25T03:18:15;93545.81;;;22.65;59.04
50342;BME280;76053;42.682;23.286;2024-03-25T03:21:15;93551.69;;;22.64;58.91
50342;BME280;76053;42.682;23.286;2024-03-25T03:24:16;93550.91;;;22.63;59.16
50342;BME280;76053;42.682;23.286;2024-03-25T03:27:17;93553.31;;;22.61;59.04
50342;BME280;76053;42.682;23.286;2024-03-25T03:30:18;93570.88;;;22.60;59.16
50342;BME280;76053;42.682;23.286;2024-03-25T03:33:18;93568.56;;;22.59;58.88
50342;BME280;76053;42.682;23.286;2024-03-25T03:36:21;93577.16;;;22.57;59.22
50342;BME280;76053;42.682;23.286;2024-03-25T03:39:22;93568.66;;;22.55;59.41
50342;BME280;76053;42.682;23.286;2024-03-25T03:42:22;93570.28;;;22.53;59.01
50342;BME280;76053;42.682;23.286;2024-03-25T03:45:24;93567.13;;;22.54;59.21
50342;BME280;76053;42.682;23.286;2024-03-25T03:48:25;93581.19;;;22.53;59.54
50342;BME280;76053;42.682;23.286;2024-03-25T03:51:25;93587.81;;;22.52;59.54
50342;BME280;76053;42.682;23.286;2024-03-25T03:54:26;93580.88;;;22.51;59.51
50342;BME280;76053;42.682;23.286;2024-03-25T03:57:26;93573.53;;;22.48;59.24
50342;BME280;76053;42.682;23.286;2024-03-25T04:00:26;93581.38;;;22.46;59.66
50342;BME280;76053;42.682;23.286;2024-03-25T04:03:27;93594.25;;;22.45;59.66
50342;BME280;76053;42.682;23.286;2024-03-25T04:06:27;93616.44;;;22.44;59.44
50342;BME280;76053;42.682;23.286;2024-03-25T04:09:28;93619.94;;;22.44;59.81
50342;BME280;76053;42.682;23.286;2024-03-25T04:12:28;93615.69;;;22.43;59.79
50342;BME280;76053;42.682;23.286;2024-03-25T04:15:29;93608.69;;;22.42;59.75
50342;BME280;76053;42.682;23.286;2024-03-25T04:18:30;93617.63;;;22.43;59.95
50342;BME280;76053;42.682;23.286;2024-03-25T04:21:30;93607.50;;;22.43;59.75
50342;BME280;76053;42.682;23.286;2024-03-25T04:24:31;93628.97;;;22.41;59.67
50342;BME280;76053;42.682;23.286;2024-03-25T04:27:31;93633.66;;;22.41;59.62
50342;BME280;76053;42.682;23.286;2024-03-25T04:30:34;93631.69;;;22.41;59.89
50342;BME280;76053;42.682;23.286;2024-03-25T04:33:35;93634.41;;;22.41;59.67
50342;BME280;76053;42.682;23.286;2024-03-25T04:36:35;93646.06;;;22.42;59.46
50342;BME280;76053;42.682;23.286;2024-03-25T04:39:36;93665.56;;;22.40;59.87
50342;BME280;76053;42.682;23.286;2024-03-25T04:42:36;93664.38;;;22.41;59.90
50342;BME280;76053;42.682;23.286;2024-03-25T04:45:36;93678.41;;;22.40;59.83
50342;BME280;76053;42.682;23.286;2024-03-25T04:48:37;93683.44;;;22.41;59.77
50342;BME280;76053;42.682;23.286;2024-03-25T04:51:37;93670.91;;;22.44;59.88
50342;BME280;76053;42.682;23.286;2024-03-25T04:54:38;93675.16;;;22.45;59.73
50342;BME280;76053;42.682;23.286;2024-03-25T04:57:38;93687.59;;;22.46;59.64
50342;BME280;76053;42.682;23.286;2024-03-25T05:00:39;93674.75;;;22.46;60.23
50342;BME280;76053;42.682;23.286;2024-03-25T05:03:40;93671.50;;;22.51;59.68
50342;BME280;76053;42.682;23.286;2024-03-25T05:06:40;93678.78;;;22.54;59.86
50342;BME280;76053;42.682;23.286;2024-03-25T05:09:41;93680.34;;;22.55;59.58
50342;BME280;76053;42.682;23.286;2024-03-25T05:12:41;93674.78;;;22.59;59.98
50342;BME280;76053;42.682;23.286;2024-03-25T05:15:49;93688.75;;;22.61;59.93
50342;BME280;76053;42.682;23.286;2024-03-25T05:18:50;93682.44;;;22.64;59.77
50342;BME280;76053;42.682;23.286;2024-03-25T05:21:50;93682.78;;;22.66;59.45
50342;BME280;76053;42.682;23.286;2024-03-25T05:24:50;93688.53;;;22.68;59.35
50342;BME280;76053;42.682;23.286;2024-03-25T05:27:51;93688.88;;;22.70;59.34
50342;BME280;76053;42.682;23.286;2024-03-25T05:30:51;93688.88;;;22.70;59.33
50342;BME280;76053;42.682;23.286;2024-03-25T05:33:52;93711.78;;;22.72;59.06
50342;BME280;76053;42.682;23.286;2024-03-25T05:36:52;93693.50;;;22.73;59.25
50342;BME280;76053;42.682;23.286;2024-03-25T05:39:52;93706.28;;;22.76;58.85
50342;BME280;76053;42.682;23.286;2024-03-25T05:42:53;93712.47;;;22.77;59.26
50342;BME280;76053;42.682;23.286;2024-03-25T05:45:54;93713.22;;;22.77;58.81
50342;BME280;76053;42.682;23.286;2024-03-25T05:48:54;93729.16;;;22.79;58.85
50342;BME280;76053;42.682;23.286;2024-03-25T05:51:54;93723.28;;;22.80;59.10
50342;BME280;76053;42.682;23.286;2024-03-25T05:54:55;93736.81;;;22.84;58.97
50342;BME280;76053;42.682;23.286;2024-03-25T05:57:55;93740.28;;;22.84;58.58
50342;BME280;76053;42.682;23.286;2024-03-25T06:00:55;93746.84;;;22.87;58.68
50342;BME280;76053;42.682;23.286;2024-03-25T06:03:56;93749.13;;;22.88;58.69
50342;BME280;76053;42.682;23.286;2024-03-25T06:06:56;93748.72;;;22.90;58.53
50342;BME280;76053;42.682;23.286;2024-03-25T06:09:56;93751.03;;;22.91;58.32
50342;BME280;76053;42.682;23.286;2024-03-25T06:12:57;93749.47;;;22.90;58.37
50342;BME280;76053;42.682;23.286;2024-03-25T06:15:57;93759.94;;;22.92;58.22
50342;BME280;76053;42.682;23.286;2024-03-25T06:18:57;93762.25;;;22.93;58.40
50342;BME280;76053;42.682;23.286;2024-03-25T06:21:58;93767.25;;;22.95;58.14
50342;BME280;76053;42.682;23.286;2024-03-25T06:24:58;93773.50;;;22.95;58.13
50342;BME280;76053;42.682;23.286;2024-03-25T06:27:59;93776.53;;;22.97;58.20
50342;BME280;76053;42.682;23.286;2024-03-25T06:30:59;93787.78;;;22.99;58.13
50342;BME280;76053;42.682;23.286;2024-03-25T06:33:59;93780.69;;;23.02;58.14
50342;BME280;76053;42.682;23.286;2024-03-25T06:37:00;93781.03;;;23.04;57.99
50342;BME280;76053;42.682;23.286;2024-03-25T06:40:00;93782.88;;;23.07;57.97
50342;BME280;76053;42.682;23.286;2024-03-25T06:43:00;93792.19;;;23.09;57.84
50342;BME280;76053;42.682;23.286;2024-03-25T06:46:01;93797.94;;;23.11;57.91
50342;BME280;76053;42.682;23.286;2024-03-25T06:49:01;93818.91;;;23.14;57.69
50342;BME280;76053;42.682;23.286;2024-03-25T06:52:02;93824.38;;;23.14;57.64
50342;BME280;76053;42.682;23.286;2024-03-25T06:55:02;93818.91;;;23.14;57.62
50342;BME280;76053;42.682;23.286;2024-03-25T06:58:03;93817.72;;;23.15;57.43
50342;BME280;76053;42.682;23.286;2024-03-25T07:01:05;93827.88;;;23.15;57.57
50342;BME280;76053;42.682;23.286;2024-03-25T07:04:05;93812.34;;;23.12;57.64
50342;BME280;76053;42.682;23.286;2024-03-25T07:07:06;93815.41;;;23.14;57.46
50342;BME280;76053;42.682;23.286;2024-03-25T07:10:06;93821.75;;;23.11;57.32
50342;BME280;76053;42.682;23.286;2024-03-25T07:13:07;93826.31;;;23.14;57.43
50342;BME280;76053;42.682;23.286;2024-03-25T07:16:07;93811.16;;;23.13;57.58
50342;BME280;76053;42.682;23.286;2024-03-25T07:19:08;93830.59;;;23.15;57.51
50342;BME280;76053;42.682;23.286;2024-03-25T07:22:08;93834.84;;;23.16;57.43
50342;BME280;76053;42.682;23.286;2024-03-25T07:25:09;93845.00;;;23.15;57.33
50342;BME280;76053;42.682;23.286;2024-03-25T07:28:09;93850.00;;;23.17;57.22
50342;BME280;76053;42.682;23.286;2024-03-25T07:31:09;93839.09;;;23.17;57.23
50342;BME280;76053;42.682;23.286;2024-03-25T07:34:10;93844.53;;;23.17;57.16
50342;BME280;76053;42.682;23.286;2024-03-25T07:37:10;93840.63;;;23.18;57.38
50342;BME280;76053;42.682;23.286;2024-03-25T07:40:11;93832.44;;;23.18;57.26
50342;BME280;76053;42.682;23.286;2024-03-25T07:43:11;93837.47;;;23.20;57.29
50342;BME280;76053;42.682;23.286;2024-03-25T07:46:12;93840.53;;;23.22;57.26
50342;BME280;76053;42.682;23.286;2024-03-25T07:49:12;93849.06;;;23.24;56.92
50342;BME280;76053;42.682;23.286;2024-03-25T07:52:12;93849.06;;;23.24;57.02
50342;BME280;76053;42.682;23.286;2024-03-25T07:55:13;93848.19;;;23.27;57.20
50342;BME280;76053;42.682;23.286;2024-03-25T07:58:13;93828.66;;;23.28;57.08
50342;BME280;76053;42.682;23.286;2024-03-25T08:01:14;93841.88;;;23.30;56.80
50342;BME280;76053;42.682;23.286;2024-03-25T08:04:14;93855.50;;;23.30;57.04
50342;BME280;76053;42.682;23.286;2024-03-25T08:07:14;93838.38;;;23.29;56.82
50342;BME280;76053;42.682;23.286;2024-03-25T08:10:15;93850.06;;;23.30;56.96
50342;BME280;76053;42.682;23.286;2024-03-25T08:13:15;93840.34;;;23.29;56.62
50342;BME280;76053;42.682;23.286;2024-03-25T08:16:16;93836.44;;;23.30;56.50
50342;BME280;76053;42.682;23.286;2024-03-25T08:19:16;93850.84;;;23.30;56.59
50342;BME280;76053;42.682;23.286;2024-03-25T08:22:16;93857.72;;;23.35;56.83
50342;BME280;76053;42.682;23.286;2024-03-25T08:25:17;93861.63;;;23.34;56.60
50342;BME280;76053;42.682;23.286;2024-03-25T08:28:17;93853.88;;;23.32;56.97
50342;BME280;76053;42.682;23.286;2024-03-25T08:31:18;93894.63;;;23.23;50.23
50342;BME280;76053;42.682;23.286;2024-03-25T08:34:18;93870.47;;;23.09;54.12
50342;BME280;76053;42.682;23.286;2024-03-25T08:37:18;93867.84;;;23.05;53.66
50342;BME280;76053;42.682;23.286;2024-03-25T08:40:19;93871.66;;;23.08;53.94
50342;BME280;76053;42.682;23.286;2024-03-25T08:43:19;93874.28;;;23.11;54.19
50342;BME280;76053;42.682;23.286;2024-03-25T08:46:19;93876.06;;;23.18;54.34
50342;BME280;76053;42.682;23.286;2024-03-25T08:49:20;93888.41;;;23.23;54.42
50342;BME280;76053;42.682;23.286;2024-03-25T08:52:20;93872.72;;;23.27;54.76
50342;BME280;76053;42.682;23.286;2024-03-25T08:55:21;93876.91;;;23.31;55.19
50342;BME280;76053;42.682;23.286;2024-03-25T08:58:21;93882.25;;;23.35;54.95
50342;BME280;76053;42.682;23.286;2024-03-25T09:01:22;93901.25;;;23.38;55.16
50342;BME280;76053;42.682;23.286;2024-03-25T09:04:22;93898.88;;;23.40;55.18
50342;BME280;76053;42.682;23.286;2024-03-25T09:07:22;93894.88;;;23.45;55.17
50342;BME280;76053;42.682;23.286;2024-03-25T09:10:23;93901.00;;;23.49;55.00
50342;BME280;76053;42.682;23.286;2024-03-25T09:13:23;93902.44;;;23.53;55.00
50342;BME280;76053;42.682;23.286;2024-03-25T09:16:24;93897.31;;;23.55;55.21
50342;BME280;76053;42.682;23.286;2024-03-25T09:19:24;93903.44;;;23.59;55.13
50342;BME280;76053;42.682;23.286;2024-03-25T09:22:24;93916.97;;;23.63;55.13
50342;BME280;76053;42.682;23.286;2024-03-25T09:25:25;93909.91;;;23.66;55.07
50342;BME280;76053;42.682;23.286;2024-03-25T09:28:25;93913.72;;;23.68;55.04
50342;BME280;76053;42.682;23.286;2024-03-25T09:31:26;93896.94;;;23.70;55.13
50342;BME280;76053;42.682;23.286;2024-03-25T09:34:26;93919.53;;;23.70;55.18
50342;BME280;76053;42.682;23.286;2024-03-25T09:37:27;93900.44;;;23.70;55.19
50342;BME280;76053;42.682;23.286;2024-03-25T09:40:27;93900.75;;;23.72;55.25
50342;BME280;76053;42.682;23.286;2024-03-25T09:43:38;93909.28;;;23.74;55.26
50342;BME280;76053;42.682;23.286;2024-03-25T09:46:42;93898.69;;;23.76;55.14
50342;BME280;76053;42.682;23.286;2024-03-25T09:49:43;93912.25;;;23.80;55.20
50342;BME280;76053;42.682;23.286;2024-03-25T09:52:46;93913.34;;;23.82;55.31
50342;BME280;76053;42.682;23.286;2024-03-25T09:55:47;93904.72;;;23.84;55.01
50342;BME280;76053;42.682;23.286;2024-03-25T09:58:47;93900.81;;;23.85;55.10
50342;BME280;76053;42.682;23.286;2024-03-25T10:01:48;93900.69;;;23.88;55.06
50342;BME280;76053;42.682;23.286;2024-03-25T10:04:48;93911.19;;;23.90;54.95
50342;BME280;76053;42.682;23.286;2024-03-25T10:07:49;93895.91;;;23.92;54.86
50342;BME280;76053;42.682;23.286;2024-03-25T10:10:50;93903.31;;;23.92;55.12
50342;BME280;76053;42.682;23.286;2024-03-25T10:13:50;93907.16;;;23.94;54.87
50342;BME280;76053;42.682;23.286;2024-03-25T10:16:50;93918.41;;;23.96;54.61
50342;BME280;76053;42.682;23.286;2024-03-25T10:19:53;93921.13;;;23.96;54.97
50342;BME280;76053;42.682;23.286;2024-03-25T10:22:54;93917.97;;;23.98;55.23
50342;BME280;76053;42.682;23.286;2024-03-25T10:25:55;93912.84;;;24.00;55.59
50342;BME280;76053;42.682;23.286;2024-03-25T10:29:00;93914.38;;;24.01;55.80
50342;BME280;76053;42.682;23.286;2024-03-25T10:32:01;93913.16;;;24.02;55.76
50342;BME280;76053;42.682;23.286;2024-03-25T10:35:01;93906.88;;;24.05;55.82
50342;BME280;76053;42.682;23.286;2024-03-25T10:38:06;93920.50;;;24.05;55.73
50342;BME280;76053;42.682;23.286;2024-03-25T10:41:07;93906.41;;;24.07;55.65
50342;BME280;76053;42.682;23.286;2024-03-25T10:44:08;93920.41;;;24.09;55.61
50342;BME280;76053;42.682;23.286;2024-03-25T10:47:12;93897.25;;;24.13;55.36
50342;BME280;76053;42.682;23.286;2024-03-25T10:50:14;93900.31;;;24.15;55.52
50342;BME280;76053;42.682;23.286;2024-03-25T10:53:18;93907.28;;;24.16;55.36
50342;BME280;76053;42.682;23.286;2024-03-25T10:56:23;93895.63;;;24.16;55.45
50342;BME280;76053;42.682;23.286;2024-03-25T10:59:24;93905.38;;;24.17;55.16
50342;BME280;76053;42.682;23.286;2024-03-25T11:02:26;93913.97;;;24.15;55.55
50342;BME280;76053;42.682;23.286;2024-03-25T11:05:27;93912.88;;;24.13;55.22
50342;BME280;76053;42.682;23.286;2024-03-25T11:08:32;93911.78;;;24.10;55.18
50342;BME280;76053;42.682;23.286;2024-03-25T11:11:35;93902.81;;;24.10;55.11
50342;BME280;76053;42.682;23.286;2024-03-25T11:14:35;93894.63;;;24.10;55.08
50342;BME280;76053;42.682;23.286;2024-03-25T11:17:36;93906.75;;;24.09;55.07
50342;BME280;76053;42.682;23.286;2024-03-25T11:20:37;93910.66;;;24.08;54.97
50342;BME280;76053;42.682;23.286;2024-03-25T11:23:40;93872.88;;;24.06;55.05
50342;BME280;76053;42.682;23.286;2024-03-25T11:26:42;93906.09;;;24.05;54.96
50342;BME280;76053;42.682;23.286;2024-03-25T11:29:42;93911.63;;;24.01;54.73
50342;BME280;76053;42.682;23.286;2024-03-25T11:32:47;93928.88;;;23.98;54.92
50342;BME280;76053;42.682;23.286;2024-03-25T11:35:51;93925.91;;;23.92;55.27
50342;BME280;76053;42.682;23.286;2024-03-25T11:38:59;93926.78;;;23.89;55.15
50342;BME280;76053;42.682;23.286;2024-03-25T11:41:59;93916.66;;;23.90;55.26
50342;BME280;76053;42.682;23.286;2024-03-25T11:45:01;93917.50;;;23.87;55.08
50342;BME280;76053;42.682;23.286;2024-03-25T11:48:01;93925.25;;;23.88;55.11
50342;BME280;76053;42.682;23.286;2024-03-25T11:51:03;93909.66;;;23.89;55.17
50342;BME280;76053;42.682;23.286;2024-03-25T11:54:04;93906.56;;;23.87;54.98
50342;BME280;76053;42.682;23.286;2024-03-25T11:57:04;93896.88;;;23.86;54.89
50342;BME280;76053;42.682;23.286;2024-03-25T12:00:05;93915.53;;;23.87;54.97
50342;BME280;76053;42.682;23.286;2024-03-25T12:03:07;93921.75;;;23.88;54.79
50342;BME280;76053;42.682;23.286;2024-03-25T12:06:08;93932.25;;;23.89;54.78
50342;BME280;76053;42.682;23.286;2024-03-25T12:09:10;93935.31;;;23.91;54.86
50342;BME280;76053;42.682;23.286;2024-03-25T12:12:10;93919.69;;;23.92;54.95
50342;BME280;76053;42.682;23.286;2024-03-25T12:15:11;93920.16;;;23.90;55.19
50342;BME280;76053;42.682;23.286;2024-03-25T12:18:11;93935.94;;;23.83;54.90
50342;BME280;76053;42.682;23.286;2024-03-25T12:21:12;93916.41;;;23.84;54.67
50342;BME280;76053;42.682;23.286;2024-03-25T12:24:12;93924.59;;;23.84;54.67
50342;BME280;76053;42.682;23.286;2024-03-25T12:27:13;93934.75;;;23.84;54.69
50342;BME280;76053;42.682;23.286;2024-03-25T12:30:13;93942.59;;;23.82;54.70
50342;BME280;76053;42.682;23.286;2024-03-25T12:33:14;93928.63;;;23.80;54.81
50342;BME280;76053;42.682;23.286;2024-03-25T12:36:14;93920.09;;;23.78;54.81
50342;BME280;76053;42.682;23.286;2024-03-25T12:39:16;93936.47;;;23.78;54.81
50342;BME280;76053;42.682;23.286;2024-03-25T12:42:17;93917.78;;;23.76;54.92
50342;BME280;76053;42.682;23.286;2024-03-25T12:45:17;93923.25;;;23.76;54.99
50342;BME280;76053;42.682;23.286;2024-03-25T12:48:18;93936.47;;;23.78;54.92
50342;BME280;76053;42.682;23.286;2024-03-25T12:51:18;93933.63;;;23.81;54.82
50342;BME280;76053;42.682;23.286;2024-03-25T12:54:19;93945.66;;;23.84;54.95
50342;BME280;76053;42.682;23.286;2024-03-25T12:57:19;93942.50;;;23.85;55.04
50342;BME280;76053;42.682;23.286;2024-03-25T13:00:20;93934.41;;;23.82;54.98
50342;BME280;76053;42.682;23.286;2024-03-25T13:03:20;93950.69;;;23.85;55.07
50342;BME280;76053;42.682;23.286;2024-03-25T13:06:20;93947.97;;;23.85;54.89
50342;BME280;76053;42.682;23.286;2024-03-25T13:09:21;93954.63;;;23.84;54.68
50342;BME280;76053;42.682;23.286;2024-03-25T13:12:21;93950.59;;;23.89;54.65
50342;BME280;76053;42.682;23.286;2024-03-25T13:15:22;93952.91;;;23.90;54.96
50342;BME280;76053;42.682;23.286;2024-03-25T13:18:22;93972.84;;;23.87;50.51
50342;BME280;76053;42.682;23.286;2024-03-25T13:21:24;93954.03;;;23.77;52.21
50342;BME280;76053;42.682;23.286;2024-03-25T13:24:24;93963.50;;;23.72;52.46
50342;BME280;76053;42.682;23.286;2024-03-25T13:27:25;93962.75;;;23.72;53.00
50342;BME280;76053;42.682;23.286;2024-03-25T13:30:26;93962.66;;;23.75;53.48
50342;BME280;76053;42.682;23.286;2024-03-25T13:33:26;93957.09;;;23.79;53.63
50342;BME280;76053;42.682;23.286;2024-03-25T13:36:27;93964.41;;;23.82;53.68
50342;BME280;76053;42.682;23.286;2024-03-25T13:39:27;93967.50;;;23.84;54.08
50342;BME280;76053;42.682;23.286;2024-03-25T13:42:28;93969.81;;;23.85;53.99
50342;BME280;76053;42.682;23.286;2024-03-25T13:45:28;93970.56;;;23.86;54.12
50342;BME280;76053;42.682;23.286;2024-03-25T13:48:29;93980.72;;;23.85;54.22
50342;BME280;76053;42.682;23.286;2024-03-25T13:51:29;93978.00;;;23.85;54.12
50342;BME280;76053;42.682;23.286;2024-03-25T13:54:30;93977.22;;;23.85;54.01
50342;BME280;76053;42.682;23.286;2024-03-25T13:57:31;93987.38;;;23.84;54.35
50342;BME280;76053;42.682;23.286;2024-03-25T14:00:31;93992.06;;;23.84;54.24
50342;BME280;76053;42.682;23.286;2024-03-25T14:03:32;94017.81;;;23.83;54.23
50342;BME280;76053;42.682;23.286;2024-03-25T14:06:32;94036.91;;;23.83;54.11
50342;BME280;76053;42.682;23.286;2024-03-25T14:09:33;94028.41;;;23.81;54.03
50342;BME280;76053;42.682;23.286;2024-03-25T14:12:33;94038.09;;;23.82;54.11
50342;BME280;76053;42.682;23.286;2024-03-25T14:15:34;94029.91;;;23.82;54.13
50342;BME280;76053;42.682;23.286;2024-03-25T14:18:34;94038.09;;;23.82;54.48
50342;BME280;76053;42.682;23.286;2024-03-25T14:21:34;94053.72;;;23.81;54.10
50342;BME280;76053;42.682;23.286;2024-03-25T14:24:35;94043.91;;;23.84;54.07
50342;BME280;76053;42.682;23.286;2024-03-25T14:27:35;94048.19;;;23.85;54.46
50342;BME280;76053;42.682;23.286;2024-03-25T14:30:36;94045.00;;;23.86;54.35
50342;BME280;76053;42.682;23.286;2024-03-25T14:33:36;94031.03;;;23.84;54.45
50342;BME280;76053;42.682;23.286;2024-03-25T14:36:36;94030.28;;;23.84;54.35
50342;BME280;76053;42.682;23.286;2024-03-25T14:39:37;94024.03;;;23.83;54.58
50342;BME280;76053;42.682;23.286;2024-03-25T14:42:38;94028.41;;;23.81;54.58
50342;BME280;76053;42.682;23.286;2024-03-25T14:45:38;94028.06;;;23.79;54.76
50342;BME280;76053;42.682;23.286;2024-03-25T14:48:39;94031.97;;;23.78;54.58
50342;BME280;76053;42.682;23.286;2024-03-25T14:51:39;94031.22;;;23.77;54.73
50342;BME280;76053;42.682;23.286;2024-03-25T14:54:39;94041.34;;;23.77;54.87
50342;BME280;76053;42.682;23.286;2024-03-25T14:57:40;94027.72;;;23.77;55.07
50342;BME280;76053;42.682;23.286;2024-03-25T15:00:40;94041.34;;;23.77;55.01
50342;BME280;76053;42.682;23.286;2024-03-25T15:03:41;94035.91;;;23.77;55.08
50342;BME280;76053;42.682;23.286;2024-03-25T15:06:41;94046.41;;;23.78;55.15
50342;BME280;76053;42.682;23.286;2024-03-25T15:09:42;94043.31;;;23.76;55.09
50342;BME280;76053;42.682;23.286;2024-03-25T15:12:42;94055.44;;;23.75;55.00
50342;BME280;76053;42.682;23.286;2024-03-25T15:15:42;94061.31;;;23.74;55.25
50342;BME280;76053;42.682;23.286;2024-03-25T15:18:44;94060.13;;;23.75;55.26
50342;BME280;76053;42.682;23.286;2024-03-25T15:21:46;94066.78;;;23.74;55.43
50342;BME280;76053;42.682;23.286;2024-03-25T15:24:46;94066.78;;;23.74;55.12
50342;BME280;76053;42.682;23.286;2024-03-25T15:27:49;94074.63;;;23.72;55.34
50342;BME280;76053;42.682;23.286;2024-03-25T15:30:50;94067.66;;;23.71;55.17
50342;BME280;76053;42.682;23.286;2024-03-25T15:33:51;94068.84;;;23.70;55.17
50342;BME280;76053;42.682;23.286;2024-03-25T15:36:51;94076.69;;;23.68;55.38
50342;BME280;76053;42.682;23.286;2024-03-25T15:39:51;94078.31;;;23.65;55.17
50342;BME280;76053;42.682;23.286;2024-03-25T15:42:52;94082.22;;;23.64;55.09
50342;BME280;76053;42.682;23.286;2024-03-25T15:45:55;94084.59;;;23.62;55.43